Time;durP1;ratioP1;P1;durP2;ratioP2;P2;SDS_P1;SDS_P2;PMS_P1;PMS_P2;Temp;Humidity;BMP_temperature;BMP_pressure;BME280_temperature;BME280_humidity;BME280_pressure;Samples;Min_cycle;Max_cycle;Signal;HPM_P1;HPM_P2
2021/12/12 00:03:01;;;;;;;197.90;100.50;;;;;;;-1.06;81.86;100429.92;227704;1193;142742;-69
2021/12/12 00:08:02;;;;;;;190.90;97.00;;;;;;;-1.06;81.80;100438.71;228284;1193;141041;-70
2021/12/12 00:13:12;;;;;;;186.00;88.30;;;;;;;-1.07;81.84;100442.05;227965;1193;140723;-71
2021/12/12 00:18:16;;;;;;;174.70;89.30;;;;;;;-1.02;82.00;100435.67;228557;1195;140221;-70
2021/12/12 00:23:19;;;;;;;182.00;89.80;;;;;;;-0.99;81.87;100438.23;229125;1195;140350;-69
2021/12/12 00:28:31;;;;;;;186.90;90.10;;;;;;;-1.02;81.90;100434.98;228858;1193;141843;-70
2021/12/12 00:33:40;;;;;;;154.90;81.90;;;;;;;-1.05;81.84;100432.98;228806;1194;140276;-71
2021/12/12 00:38:49;;;;;;;180.90;89.20;;;;;;;-1.10;81.92;100427.48;230148;1193;142231;-69
2021/12/12 00:43:52;;;;;;;168.60;82.70;;;;;;;-1.08;81.96;100434.77;230084;1194;143809;-72
2021/12/12 00:48:55;;;;;;;183.40;95.90;;;;;;;-1.02;82.16;100427.46;230062;1193;140261;-70
2021/12/12 00:53:59;;;;;;;173.90;86.40;;;;;;;-0.95;82.08;100435.38;230140;1193;140364;-69
2021/12/12 00:59:04;;;;;;;170.90;85.90;;;;;;;-0.94;82.16;100427.30;230028;1193;140819;-69
2021/12/12 01:04:11;;;;;;;156.10;78.00;;;;;;;-0.95;82.26;100423.51;229182;1193;140895;-70
2021/12/12 01:09:31;;;;;;;171.40;85.40;;;;;;;-0.90;81.78;100423.94;228479;1193;141100;-71
2021/12/12 01:14:42;;;;;;;185.30;87.50;;;;;;;-0.87;82.30;100427.42;228518;1181;142052;-70
2021/12/12 01:19:53;;;;;;;177.00;81.00;;;;;;;-0.82;82.62;100423.55;229222;1193;140548;-70
2021/12/12 01:25:05;;;;;;;173.00;88.80;;;;;;;-0.81;82.43;100426.91;228203;1193;140755;-69
2021/12/12 01:30:10;;;;;;;160.90;80.90;;;;;;;-0.79;82.27;100431.23;228703;1193;140495;-68
2021/12/12 01:35:15;;;;;;;173.50;86.90;;;;;;;-0.76;82.24;100430.05;228330;1193;140940;-69
2021/12/12 01:40:25;;;;;;;164.40;76.90;;;;;;;-0.80;82.33;100429.93;229201;1193;140266;-69
2021/12/12 01:45:33;;;;;;;174.90;75.00;;;;;;;-0.82;82.22;100425.09;228881;1193;140070;-70
2021/12/12 01:50:50;;;;;;;155.70;73.00;;;;;;;-0.82;82.28;100427.65;228737;1193;139609;-69
2021/12/12 01:56:20;;;;;;;186.70;92.20;;;;;;;-0.80;82.20;100435.63;228439;1193;141132;-69
2021/12/12 02:01:28;;;;;;;162.90;85.20;;;;;;;-0.80;82.38;100442.30;228971;1193;140585;-71
2021/12/12 02:06:33;;;;;;;159.40;74.30;;;;;;;-0.80;82.22;100446.39;228974;1193;140480;-70
2021/12/12 02:11:37;;;;;;;141.80;64.00;;;;;;;-0.85;82.19;100451.71;228931;1193;140800;-70
2021/12/12 02:16:52;;;;;;;158.90;67.10;;;;;;;-0.89;82.39;100451.92;228873;1193;141678;-69
2021/12/12 02:22:23;;;;;;;124.20;53.70;;;;;;;-0.89;82.06;100451.23;229396;1193;140500;-65
2021/12/12 02:38:15;;;;;;;148.60;56.90;;;;;;;-1.06;81.91;100458.92;228711;1193;162075;-69
2021/12/12 02:43:35;;;;;;;129.60;48.80;;;;;;;-1.12;82.12;100454.73;230133;1193;143122;-69
2021/12/12 02:48:42;;;;;;;133.30;57.90;;;;;;;-1.10;81.84;100450.02;230544;1193;140923;-70
2021/12/12 02:53:55;;;;;;;122.30;57.50;;;;;;;-1.09;81.87;100446.10;228780;1193;140706;-68
2021/12/12 02:58:58;;;;;;;128.60;51.10;;;;;;;-1.08;82.28;100442.19;229015;1193;139810;-69
2021/12/12 03:04:01;;;;;;;120.60;51.80;;;;;;;-1.09;82.42;100449.77;229700;1193;142774;-66
2021/12/12 03:09:12;;;;;;;114.50;52.90;;;;;;;-1.01;82.49;100449.95;229121;1193;139909;-67
2021/12/12 03:14:16;;;;;;;117.00;47.30;;;;;;;-0.98;82.37;100451.06;228372;1193;139786;-66
2021/12/12 03:19:21;;;;;;;111.00;50.10;;;;;;;-0.95;82.59;100465.79;230291;1193;140051;-67
2021/12/12 03:24:33;;;;;;;124.20;49.30;;;;;;;-0.95;82.25;100474.52;228619;1193;141062;-65
2021/12/12 03:29:39;;;;;;;94.80;40.90;;;;;;;-0.98;82.32;100485.45;229028;1193;140639;-66
2021/12/12 03:34:58;;;;;;;128.60;54.10;;;;;;;-1.02;82.08;100495.47;228486;1193;141417;-68
2021/12/12 03:40:10;;;;;;;115.60;48.50;;;;;;;-1.01;82.50;100508.52;227924;1193;140113;-67
2021/12/12 03:45:13;;;;;;;98.90;43.90;;;;;;;-1.02;82.34;100527.75;228697;1193;140411;-69
2021/12/12 03:50:22;;;;;;;100.50;39.00;;;;;;;-1.07;82.45;100539.91;227892;1193;140098;-70
2021/12/12 03:55:25;;;;;;;102.60;41.00;;;;;;;-1.15;82.39;100539.98;229204;1193;140592;-69
2021/12/12 04:00:45;;;;;;;106.60;42.10;;;;;;;-1.14;82.37;100556.46;228342;1193;140518;-70
2021/12/12 04:05:58;;;;;;;109.00;45.00;;;;;;;-1.16;82.25;100559.20;228244;1187;141135;-70
2021/12/12 04:11:02;;;;;;;116.30;45.90;;;;;;;-1.20;82.73;100569.90;228775;1193;140325;-69
2021/12/12 04:16:08;;;;;;;92.80;40.00;;;;;;;-1.23;82.49;100572.45;228018;1193;140816;-69
2021/12/12 04:21:12;;;;;;;92.00;36.60;;;;;;;-1.25;82.57;100578.87;228359;1187;140554;-68
2021/12/12 04:26:21;;;;;;;95.60;40.00;;;;;;;-1.26;82.31;100581.27;228021;1193;141632;-68
2021/12/12 04:31:26;;;;;;;95.50;39.00;;;;;;;-1.29;82.43;100580.69;229498;1193;141358;-69
2021/12/12 04:36:39;;;;;;;94.30;36.40;;;;;;;-1.37;82.40;100574.92;229809;1193;139997;-69
2021/12/12 04:41:46;;;;;;;116.80;54.10;;;;;;;-1.34;82.39;100580.82;230132;1193;140692;-70
2021/12/12 04:53:14;;;;;;;99.90;36.70;;;;;;;-1.32;82.35;100598.41;230326;1193;139912;-69
2021/12/12 04:59:01;;;;;;;96.40;38.20;;;;;;;-1.32;82.29;100600.54;229497;1193;140261;-69
2021/12/12 05:04:14;;;;;;;91.50;32.90;;;;;;;-1.28;82.28;100605.19;229625;1193;140303;-72
2021/12/12 05:09:26;;;;;;;90.30;39.80;;;;;;;-1.36;82.08;100607.08;228272;1193;140599;-73
2021/12/12 05:14:41;;;;;;;73.00;30.50;;;;;;;-1.48;81.95;100601.52;228864;1193;139242;-69
2021/12/12 05:19:56;;;;;;;70.00;30.00;;;;;;;-1.51;82.22;100610.16;228285;1193;140039;-68
2021/12/12 05:25:08;;;;;;;78.80;31.70;;;;;;;-1.50;82.03;100616.95;229011;1193;141083;-67
2021/12/12 05:30:17;;;;;;;80.00;34.90;;;;;;;-1.52;82.30;100614.65;229284;1193;141700;-68
2021/12/12 05:35:37;;;;;;;74.30;30.10;;;;;;;-1.52;82.50;100614.84;228844;1193;141716;-68
2021/12/12 05:40:46;;;;;;;78.80;29.80;;;;;;;-1.56;82.42;100615.19;227868;1194;139772;-68
2021/12/12 05:45:51;;;;;;;70.10;31.20;;;;;;;-1.55;82.46;100612.49;228728;1193;142029;-69
2021/12/12 05:50:53;;;;;;;77.10;30.70;;;;;;;-1.53;82.42;100616.87;228437;1193;140989;-68
2021/12/12 05:56:03;;;;;;;89.30;39.50;;;;;;;-1.52;82.68;100617.05;228413;1193;140594;-71
2021/12/12 06:01:10;;;;;;;92.50;32.00;;;;;;;-1.51;82.67;100623.98;228985;1193;139867;-70
2021/12/12 06:06:18;;;;;;;78.40;28.20;;;;;;;-1.55;82.30;100629.72;229130;1193;139561;-69
2021/12/12 06:11:24;;;;;;;75.50;28.60;;;;;;;-1.52;82.47;100630.37;228492;1193;139983;-68
2021/12/12 06:16:47;;;;;;;76.10;29.80;;;;;;;-1.50;82.44;100626.13;228350;1193;140471;-67
2021/12/12 06:21:58;;;;;;;78.20;34.40;;;;;;;-1.49;82.84;100630.95;228531;1193;139237;-67
2021/12/12 06:27:13;;;;;;;68.90;25.70;;;;;;;-1.52;82.44;100638.30;229211;1193;140208;-73
2021/12/12 06:32:18;;;;;;;71.40;26.70;;;;;;;-1.57;82.74;100640.38;227786;1193;140215;-70
2021/12/12 06:37:27;;;;;;;71.70;29.00;;;;;;;-1.54;82.51;100648.63;229883;1193;140729;-71
2021/12/12 06:42:31;;;;;;;69.40;29.80;;;;;;;-1.55;82.40;100654.15;228091;1193;140996;-72
2021/12/12 06:47:37;;;;;;;74.20;30.60;;;;;;;-1.52;82.64;100660.32;228119;1193;140648;-72
2021/12/12 06:52:40;;;;;;;72.80;30.30;;;;;;;-1.52;82.68;100663.13;228668;1193;140433;-71
2021/12/12 06:57:44;;;;;;;67.80;24.20;;;;;;;-1.52;82.60;100667.80;230351;1193;140128;-72
2021/12/12 07:02:50;;;;;;;52.20;20.70;;;;;;;-1.49;82.42;100684.84;229091;1193;139945;-69
2021/12/12 07:07:56;;;;;;;63.60;27.00;;;;;;;-1.52;82.25;100683.11;229429;1193;140042;-69
2021/12/12 07:13:00;;;;;;;57.30;22.50;;;;;;;-1.54;82.43;100683.11;228838;1193;139260;-69
2021/12/12 07:18:12;;;;;;;49.10;21.10;;;;;;;-1.54;82.10;100682.62;229276;1193;141489;-69
2021/12/12 07:23:16;;;;;;;65.30;28.10;;;;;;;-1.48;82.04;100687.13;229892;1193;140450;-70
2021/12/12 07:28:19;;;;;;;51.50;23.60;;;;;;;-1.47;81.97;100693.19;228861;1193;139804;-69
2021/12/12 07:33:22;;;;;;;45.40;20.20;;;;;;;-1.49;81.90;100693.66;228217;1193;140547;-68
2021/12/12 07:38:26;;;;;;;56.20;21.20;;;;;;;-1.56;81.64;100686.69;228097;1193;140942;-69
2021/12/12 07:43:31;;;;;;;44.90;19.30;;;;;;;-1.53;81.85;100686.68;228529;1193;140874;-68
2021/12/12 07:48:35;;;;;;;54.50;21.80;;;;;;;-1.57;81.69;100702.08;227896;1193;139584;-67
2021/12/12 07:53:39;;;;;;;52.40;23.60;;;;;;;-1.55;82.06;100708.88;228722;1193;139448;-67
2021/12/12 07:58:42;;;;;;;43.90;21.40;;;;;;;-1.53;82.13;100714.79;229130;1193;140976;-70
2021/12/12 08:03:47;;;;;;;52.10;21.60;;;;;;;-1.61;81.64;100718.45;228727;1193;140572;-69
2021/12/12 08:08:53;;;;;;;54.00;21.00;;;;;;;-1.68;81.50;100716.77;228510;1193;140248;-70
2021/12/12 08:13:57;;;;;;;52.90;22.80;;;;;;;-1.73;81.39;100717.57;228863;1193;141687;-70
2021/12/12 08:19:01;;;;;;;56.20;21.50;;;;;;;-1.79;81.73;100723.44;229181;1193;140018;-69
2021/12/12 08:24:11;;;;;;;46.20;21.10;;;;;;;-1.74;81.87;100734.16;228846;1193;140273;-68
2021/12/12 08:29:19;;;;;;;61.00;22.80;;;;;;;-1.72;81.55;100736.40;229681;1193;206274;-66
2021/12/12 08:34:25;;;;;;;52.70;23.00;;;;;;;-1.58;81.39;100731.27;228621;1193;140320;-67
2021/12/12 08:39:29;;;;;;;49.20;20.90;;;;;;;-1.43;81.37;100738.32;228919;1193;151393;-68
2021/12/12 08:44:35;;;;;;;52.40;22.20;;;;;;;-1.36;81.83;100740.19;230230;1194;139779;-68
2021/12/12 08:49:41;;;;;;;51.00;19.70;;;;;;;-1.32;81.47;100742.73;230211;1193;140185;-72
2021/12/12 08:54:46;;;;;;;53.70;22.70;;;;;;;-1.30;81.10;100744.34;229156;1193;140873;-70
2021/12/12 08:59:53;;;;;;;46.40;18.70;;;;;;;-1.20;81.05;100738.73;230299;1193;141453;-70
2021/12/12 09:05:02;;;;;;;46.70;21.30;;;;;;;-1.10;81.14;100749.55;229999;1193;139499;-69
2021/12/12 09:10:20;;;;;;;46.90;19.80;;;;;;;-1.03;81.03;100747.16;229318;1193;140993;-69
2021/12/12 09:15:33;;;;;;;46.30;19.40;;;;;;;-0.95;80.67;100745.98;229787;1193;140165;-68
2021/12/12 09:20:49;;;;;;;45.80;21.00;;;;;;;-0.92;80.48;100744.44;227633;1193;140833;-71
2021/12/12 09:25:58;;;;;;;41.80;17.70;;;;;;;-0.76;80.31;100744.89;229013;1193;141419;-71
2021/12/12 09:31:10;;;;;;;52.00;25.80;;;;;;;-0.62;80.29;100745.05;229053;1193;140019;-71
2021/12/12 09:36:23;;;;;;;25.80;12.30;;;;;;;-0.56;80.36;100739.09;228276;1193;141971;-70
2021/12/12 09:42:08;;;;;;;54.90;20.00;;;;;;;-0.69;79.62;100738.06;228708;1193;140763;-70
2021/12/12 09:48:03;;;;;;;54.00;25.00;;;;;;;-0.77;80.15;100737.70;228251;1193;142814;-70
2021/12/12 09:53:07;;;;;;;54.00;24.10;;;;;;;-0.68;80.15;100723.84;228212;1193;139817;-69
2021/12/12 09:58:46;;;;;;;54.40;22.70;;;;;;;-0.57;80.21;100708.98;229153;1193;140088;-69
2021/12/12 10:04:15;;;;;;;43.80;20.30;;;;;;;-0.50;80.25;100697.14;228408;1193;142163;-72
2021/12/12 10:09:43;;;;;;;52.40;18.30;;;;;;;-0.41;79.82;100701.40;228312;1193;140366;-69
2021/12/12 10:14:52;;;;;;;;;;;;;;;-0.41;79.11;100704.19;227964;1193;141074;-69
2021/12/12 10:20:05;;;;;;;45.10;21.00;;;;;;;-0.55;79.19;100711.41;229591;1193;126864;-69
2021/12/12 10:25:16;;;;;;;45.70;22.50;;;;;;;-0.55;79.14;100713.73;228559;1193;230602;-66
2021/12/12 10:30:30;;;;;;;46.20;18.90;;;;;;;-0.53;79.62;100708.46;228015;1193;141681;-66
2021/12/12 10:35:41;;;;;;;52.40;24.80;;;;;;;-0.54;79.05;100704.98;228912;1193;143503;-67
2021/12/12 10:40:53;;;;;;;54.30;25.00;;;;;;;-0.50;79.14;100708.30;228988;1193;141191;-66
2021/12/12 10:46:05;;;;;;;61.60;26.00;;;;;;;-0.47;79.25;100709.98;228572;1193;140679;-66
2021/12/12 10:51:20;;;;;;;44.90;20.00;;;;;;;-0.39;79.35;100708.73;230094;1193;143052;-67
2021/12/12 10:56:50;;;;;;;51.80;20.80;;;;;;;-0.39;79.20;100707.80;228527;1193;140942;-66
2021/12/12 11:01:57;;;;;;;50.00;22.30;;;;;;;-0.27;78.90;100714.30;229239;1193;141079;-67
2021/12/12 11:07:33;;;;;;;50.20;21.40;;;;;;;-0.22;78.80;100708.45;230044;1193;141090;-67
2021/12/12 11:13:09;;;;;;;49.30;21.80;;;;;;;-0.22;78.69;100703.70;229809;1193;140272;-66
2021/12/12 11:18:40;;;;;;;52.20;23.60;;;;;;;-0.20;78.76;100701.93;229472;1193;140520;-65
2021/12/12 11:24:08;;;;;;;50.70;24.60;;;;;;;-0.22;78.77;100699.34;228936;1193;141689;-66
2021/12/12 11:29:23;;;;;;;50.30;20.40;;;;;;;-0.24;78.49;100698.27;228752;1193;140206;-67
2021/12/12 11:34:28;;;;;;;56.90;26.70;;;;;;;-0.18;78.50;100688.80;228620;1193;142312;-66
2021/12/12 11:39:41;;;;;;;47.30;22.00;;;;;;;-0.09;78.55;100687.27;229237;1193;140992;-66
2021/12/12 11:45:03;;;;;;;48.10;22.90;;;;;;;-0.09;78.41;100690.73;228105;1193;139568;-66
2021/12/12 11:50:21;;;;;;;48.30;21.20;;;;;;;-0.18;78.10;100687.06;229446;1193;140548;-66
2021/12/12 11:55:27;;;;;;;;;;;;;;;-0.23;77.99;100680.39;228188;1193;139379;-66
2021/12/12 12:01:11;;;;;;;50.70;20.60;;;;;;;-0.29;78.43;100679.55;228740;1193;125668;-67
2021/12/12 12:06:29;;;;;;;55.50;21.80;;;;;;;-0.36;78.26;100690.28;228607;1193;141083;-67
2021/12/12 12:11:51;;;;;;;58.40;24.90;;;;;;;-0.35;78.11;100698.75;227806;1193;140477;-68
2021/12/12 12:17:09;;;;;;;50.00;23.80;;;;;;;-0.36;78.03;100702.80;228612;1193;139744;-67
2021/12/12 12:22:29;;;;;;;;;;;;;;;;;;;;;
2021/12/12 12:27:40;;;;;;;40.90;19.90;;;;;;;-0.29;77.98;100695.41;229262;1193;125373;-68
2021/12/12 12:33:11;;;;;;;49.10;23.50;;;;;;;-0.37;77.97;100686.34;227809;1193;144921;-67
2021/12/12 12:39:06;;;;;;;52.70;24.30;;;;;;;-0.41;77.90;100689.85;228856;1193;140869;-67
2021/12/12 12:44:35;;;;;;;60.30;27.80;;;;;;;-0.54;77.79;100677.50;228347;1193;140508;-68
2021/12/12 12:50:19;;;;;;;53.30;25.20;;;;;;;-0.63;77.80;100679.02;229024;1193;140152;-68
2021/12/12 12:55:33;;;;;;;63.20;26.70;;;;;;;-0.73;77.86;100676.44;229618;1193;139375;-68
2021/12/12 13:00:38;;;;;;;60.00;24.80;;;;;;;-0.81;77.91;100687.08;230306;1193;140454;-70
2021/12/12 13:06:01;;;;;;;57.50;25.70;;;;;;;-0.88;77.81;100703.27;228181;1193;139912;-67
2021/12/12 13:11:08;;;;;;;75.70;30.50;;;;;;;-1.02;77.43;100701.67;230315;1193;142292;-70
2021/12/12 13:16:40;;;;;;;57.30;26.50;;;;;;;-1.14;77.72;100706.83;229124;1193;140323;-68
2021/12/12 13:21:56;;;;;;;55.80;28.00;;;;;;;-1.31;77.71;100715.48;228755;1193;139930;-67
2021/12/12 13:27:38;;;;;;;71.30;27.20;;;;;;;-1.46;77.93;100716.23;229062;1193;140789;-69
2021/12/12 13:32:46;;;;;;;81.00;33.80;;;;;;;-1.51;77.88;100709.17;227855;1187;142084;-71
2021/12/12 13:38:11;;;;;;;87.30;32.10;;;;;;;-1.54;78.32;100708.42;228915;1193;140602;-67
2021/12/12 13:43:33;;;;;;;72.50;28.00;;;;;;;-1.49;78.73;100704.98;229204;1193;140066;-70
2021/12/12 13:48:48;;;;;;;78.80;32.50;;;;;;;-1.52;78.92;100705.68;229683;1193;140630;-69
2021/12/12 13:54:21;;;;;;;63.20;27.30;;;;;;;-1.55;78.75;100706.27;229162;1193;142188;-69
2021/12/12 14:00:08;;;;;;;86.70;35.70;;;;;;;-1.56;78.65;100701.33;228299;1193;140279;-70
2021/12/12 14:05:41;;;;;;;75.40;32.60;;;;;;;-1.58;79.06;100688.91;227889;1193;141089;-68
2021/12/12 14:10:56;;;;;;;66.40;31.80;;;;;;;-1.62;78.98;100693.98;229307;1193;141329;-70
2021/12/12 14:16:02;;;;;;;80.50;29.80;;;;;;;-1.68;79.52;100688.52;228631;1193;139503;-68
2021/12/12 14:21:07;;;;;;;52.50;18.30;;;;;;;-1.70;79.59;100702.29;229148;1193;142029;-68
2021/12/12 14:26:16;;;;;;;54.70;25.90;;;;;;;-1.72;79.19;100703.33;228627;1193;140188;-68
2021/12/12 14:31:30;;;;;;;66.50;29.40;;;;;;;-1.80;79.36;100707.34;229249;1193;139926;-69
2021/12/12 14:36:36;;;;;;;70.40;30.70;;;;;;;-1.83;79.92;100709.33;227885;1193;140546;-66
2021/12/12 14:41:45;;;;;;;76.40;34.40;;;;;;;-1.81;80.07;100704.44;228598;1193;139880;-67
2021/12/12 14:46:53;;;;;;;76.80;31.30;;;;;;;-1.79;80.17;100716.50;229291;1193;141215;-68
2021/12/12 14:52:09;;;;;;;74.90;29.70;;;;;;;-1.81;80.09;100709.52;229114;1193;140185;-67
2021/12/12 14:57:16;;;;;;;75.20;30.30;;;;;;;-1.77;79.93;100717.59;229922;1193;140856;-69
2021/12/12 15:02:21;;;;;;;;;;;;;;;-1.78;79.88;100711.50;228158;1193;225847;-68
2021/12/12 15:07:30;;;;;;;72.50;30.20;;;;;;;-1.84;80.07;100714.89;230849;1193;125425;-68
2021/12/12 15:12:36;;;;;;;;;;;;;;;-1.86;79.96;100719.90;230152;1193;142046;-68
2021/12/12 15:17:45;;;;;;;81.30;31.30;;;;;;;-1.79;80.13;100714.21;230902;1193;127114;-71
2021/12/12 15:22:54;;;;;;;67.70;30.00;;;;;;;-1.75;80.37;100723.81;230237;1186;140286;-70
2021/12/12 15:28:05;;;;;;;69.90;28.60;;;;;;;-1.74;80.34;100731.40;228772;1193;140981;-69
2021/12/12 15:33:15;;;;;;;78.70;32.10;;;;;;;-1.76;80.35;100727.88;228228;1193;140471;-70
2021/12/12 15:38:23;;;;;;;74.40;26.70;;;;;;;-1.80;80.16;100734.84;229486;1193;141587;-69
2021/12/12 15:43:33;;;;;;;74.70;34.90;;;;;;;-1.80;80.27;100739.41;228180;1193;143160;-69
2021/12/12 15:48:48;;;;;;;66.70;28.60;;;;;;;-1.81;80.67;100737.70;227647;1195;140555;-69
2021/12/12 15:53:57;;;;;;;68.60;27.30;;;;;;;-1.81;80.63;100742.27;228443;1193;140500;-71
2021/12/12 15:59:09;;;;;;;73.60;27.00;;;;;;;-1.84;80.91;100741.63;228110;1193;139650;-71
2021/12/12 16:04:20;;;;;;;69.80;27.10;;;;;;;-1.88;80.60;100738.57;228600;1193;139615;-70
2021/12/12 16:09:27;;;;;;;56.60;20.50;;;;;;;-1.85;80.74;100735.17;228398;1193;141048;-72
2021/12/12 16:14:33;;;;;;;66.20;26.90;;;;;;;-1.86;80.64;100727.27;228246;1193;140042;-71
2021/12/12 16:20:07;;;;;;;73.30;30.30;;;;;;;-1.90;80.68;100722.33;228407;1193;140375;-67
2021/12/12 16:25:14;;;;;;;62.90;26.50;;;;;;;-1.91;80.88;100727.66;228048;1193;139560;-67
2021/12/12 16:30:33;;;;;;;70.10;26.50;;;;;;;-1.93;81.07;100721.02;228292;1193;139272;-70
2021/12/12 16:35:39;;;;;;;67.30;27.20;;;;;;;-1.90;80.78;100724.64;228969;1193;142221;-70
2021/12/12 16:40:49;;;;;;;63.20;27.30;;;;;;;-1.90;80.81;100731.55;229274;1193;141212;-73
2021/12/12 16:46:00;;;;;;;67.10;27.50;;;;;;;-1.93;80.75;100728.73;230125;1193;139464;-73
2021/12/12 16:51:08;;;;;;;73.60;25.20;;;;;;;-2.03;80.72;100725.33;230032;1193;140826;-68
2021/12/12 16:56:19;;;;;;;60.70;25.60;;;;;;;-2.02;80.82;100728.55;230100;1193;139685;-70
2021/12/12 17:01:27;;;;;;;67.00;29.80;;;;;;;-1.94;80.79;100730.75;229408;1193;140135;-68
2021/12/12 17:06:36;;;;;;;72.20;27.60;;;;;;;-1.91;80.76;100723.29;229026;1193;140488;-69
2021/12/12 17:11:46;;;;;;;64.90;27.20;;;;;;;-1.96;80.79;100717.64;230179;1193;141571;-67
2021/12/12 17:16:53;;;;;;;59.10;26.10;;;;;;;-2.03;80.65;100706.21;230227;1193;139284;-70
2021/12/12 17:21:58;;;;;;;46.40;21.80;;;;;;;-2.10;80.81;100711.52;230475;1193;140026;-65
2021/12/12 17:27:06;;;;;;;59.50;23.60;;;;;;;-2.16;80.75;100724.70;228932;1193;140156;-67
2021/12/12 17:32:13;;;;;;;57.30;23.80;;;;;;;-2.20;80.46;100723.19;228700;1193;141463;-67
2021/12/12 17:37:23;;;;;;;57.40;26.90;;;;;;;-2.21;80.54;100721.13;228470;1193;141078;-67
2021/12/12 17:42:51;;;;;;;61.50;26.20;;;;;;;-2.26;80.73;100737.08;229166;1193;140770;-66
2021/12/12 17:48:39;;;;;;;53.80;22.90;;;;;;;-2.29;81.04;100736.48;228403;1193;140790;-66
2021/12/12 17:53:46;;;;;;;52.70;20.90;;;;;;;-2.38;80.69;100733.48;228706;1193;140578;-68
2021/12/12 17:59:08;;;;;;;45.80;21.90;;;;;;;-2.36;80.76;100724.11;228143;1193;141478;-67
2021/12/12 18:04:14;;;;;;;57.70;24.10;;;;;;;-2.45;80.53;100718.44;228809;1193;142523;-69
2021/12/12 18:09:54;;;;;;;57.40;26.10;;;;;;;-2.57;80.91;100714.47;227707;1193;140187;-68
2021/12/12 18:15:00;;;;;;;57.70;24.10;;;;;;;-2.60;81.27;100710.45;228642;1193;142017;-67
2021/12/12 18:20:30;;;;;;;55.30;24.00;;;;;;;-2.61;81.31;100717.16;228236;1193;139806;-66
2021/12/12 18:26:02;;;;;;;55.60;23.40;;;;;;;-2.56;81.20;100714.68;228934;1193;140570;-64
2021/12/12 18:31:10;;;;;;;46.00;19.20;;;;;;;-2.52;81.26;100716.63;229346;1193;141848;-67
2021/12/12 18:36:40;;;;;;;43.90;20.70;;;;;;;-2.57;81.11;100710.23;228637;1193;141833;-66
2021/12/12 18:42:16;;;;;;;57.80;24.00;;;;;;;-2.60;81.41;100712.96;228622;1193;140295;-66
2021/12/12 18:47:25;;;;;;;61.50;28.90;;;;;;;-2.63;81.29;100715.99;228325;1193;139968;-65
2021/12/12 18:52:33;;;;;;;61.20;25.30;;;;;;;-2.58;81.28;100718.17;228712;1193;144115;-67
2021/12/12 18:57:48;;;;;;;43.70;19.10;;;;;;;-2.52;81.68;100723.25;229771;1193;140998;-67
2021/12/12 19:03:03;;;;;;;60.30;22.10;;;;;;;-2.57;81.40;100719.98;229155;1193;141357;-69
2021/12/12 19:08:22;;;;;;;41.50;18.10;;;;;;;-2.62;81.37;100723.99;230326;1193;140682;-67
2021/12/12 19:13:32;;;;;;;48.80;23.10;;;;;;;-2.60;81.41;100730.83;230042;1193;140733;-70
2021/12/12 19:18:44;;;;;;;70.90;28.70;;;;;;;-2.59;81.46;100727.98;229618;1193;140948;-67
2021/12/12 19:23:52;;;;;;;47.90;23.10;;;;;;;-2.55;81.66;100732.86;230430;1193;140874;-70
2021/12/12 19:28:57;;;;;;;59.70;21.40;;;;;;;-2.51;81.86;100737.58;228870;1193;140436;-71
2021/12/12 19:34:08;;;;;;;49.00;20.80;;;;;;;-2.45;81.74;100734.23;230037;1193;140925;-67
2021/12/12 19:39:21;;;;;;;55.20;22.00;;;;;;;-2.39;81.88;100738.48;228385;1193;140208;-66
2021/12/12 19:44:28;;;;;;;60.20;24.40;;;;;;;-2.40;81.74;100727.41;229032;1193;140399;-70
2021/12/12 19:49:34;;;;;;;53.20;22.50;;;;;;;-2.42;81.71;100719.54;229020;1193;141274;-70
2021/12/12 19:54:39;;;;;;;59.40;23.00;;;;;;;-2.42;81.98;100728.96;228614;1193;139886;-69
2021/12/12 19:59:46;;;;;;;56.10;25.00;;;;;;;-2.40;81.74;100721.29;229146;1193;142090;-68
2021/12/12 20:04:57;;;;;;;66.50;25.40;;;;;;;-2.39;81.60;100720.23;228150;1193;141428;-68
2021/12/12 20:10:16;;;;;;;66.80;27.10;;;;;;;-2.39;82.06;100724.67;228400;1193;140487;-69
2021/12/12 20:15:22;;;;;;;58.90;25.00;;;;;;;-2.37;81.99;100735.87;228509;1193;139988;-69
2021/12/12 20:20:36;;;;;;;72.00;29.20;;;;;;;-2.43;81.83;100754.68;228845;1193;140300;-69
2021/12/12 20:25:45;;;;;;;71.50;24.70;;;;;;;-2.43;81.84;100754.94;228614;1193;208636;-68
2021/12/12 20:31:04;;;;;;;66.90;29.30;;;;;;;-2.39;82.12;100753.04;228631;1193;141453;-68
2021/12/12 20:36:06;;;;;;;;;;;;;;;-2.43;81.78;100745.05;228441;1193;139447;-68
2021/12/12 20:41:18;;;;;;;70.40;27.00;;;;;;;-2.46;82.08;100741.20;229054;1193;125533;-67
2021/12/12 20:46:29;;;;;;;51.60;20.50;;;;;;;-2.49;81.94;100723.69;228514;1193;140017;-68
2021/12/12 20:51:42;;;;;;;62.70;24.60;;;;;;;-2.57;81.66;100717.39;228098;1193;139387;-65
2021/12/12 20:56:55;;;;;;;63.00;23.20;;;;;;;-2.61;81.65;100723.95;227715;1193;139799;-69
2021/12/12 21:02:09;;;;;;;65.00;25.80;;;;;;;-2.58;82.02;100725.46;230120;1193;140931;-68
2021/12/12 21:07:17;;;;;;;56.70;22.30;;;;;;;-2.60;81.65;100714.64;229389;1193;140390;-68
2021/12/12 21:12:42;;;;;;;60.50;26.30;;;;;;;-2.68;81.68;100702.13;230401;1193;139361;-69
2021/12/12 21:17:49;;;;;;;55.70;22.30;;;;;;;-2.75;81.67;100710.46;228628;1193;140387;-69
2021/12/12 21:23:00;;;;;;;70.50;22.60;;;;;;;-2.78;81.58;100722.73;229680;1193;210467;-67
2021/12/12 21:28:33;;;;;;;52.20;20.30;;;;;;;-2.80;81.49;100716.48;229268;1193;140069;-67
2021/12/12 21:33:49;;;;;;;43.50;17.30;;;;;;;-2.80;81.75;100718.17;228907;1193;139382;-67
2021/12/12 21:39:00;;;;;;;58.80;24.90;;;;;;;-2.81;81.98;100716.74;229445;1193;140518;-68
2021/12/12 21:44:16;;;;;;;57.70;21.00;;;;;;;-2.78;82.01;100726.91;229251;1193;140059;-69
2021/12/12 21:49:20;;;;;;;55.10;27.30;;;;;;;-2.79;81.96;100725.60;228857;1193;139463;-66
2021/12/12 21:54:24;;;;;;;62.30;27.90;;;;;;;-2.80;82.08;100717.88;228997;1193;142085;-67
2021/12/12 21:59:27;;;;;;;64.70;24.60;;;;;;;-2.76;82.17;100703.41;228904;1193;141575;-66
2021/12/12 22:04:35;;;;;;;60.90;27.00;;;;;;;-2.73;82.17;100698.48;227971;1193;139704;-67
2021/12/12 22:09:40;;;;;;;62.50;25.70;;;;;;;-2.77;82.07;100696.52;228331;1194;140133;-66
2021/12/12 22:14:59;;;;;;;68.20;23.90;;;;;;;-2.78;82.21;100698.56;227932;1193;139631;-66
2021/12/12 22:20:16;;;;;;;58.90;29.30;;;;;;;-2.76;82.52;100708.17;229016;1193;140468;-71
2021/12/12 22:25:28;;;;;;;66.20;24.60;;;;;;;-2.66;82.53;100724.04;229296;1193;140444;-67
2021/12/12 22:30:34;;;;;;;70.00;27.10;;;;;;;-2.59;82.52;100720.17;228885;1193;140773;-69
2021/12/12 22:35:42;;;;;;;49.10;19.40;;;;;;;-2.56;82.65;100706.67;229179;1193;140665;-70
2021/12/12 22:40:52;;;;;;;51.60;20.70;;;;;;;-2.65;82.22;100702.39;229427;1193;139896;-66
2021/12/12 22:46:00;;;;;;;65.00;23.40;;;;;;;-2.71;82.30;100682.48;228835;1193;140666;-66
2021/12/12 22:51:14;;;;;;;62.80;24.70;;;;;;;-2.67;82.26;100679.41;229504;1193;163189;-67
2021/12/12 22:56:24;;;;;;;78.20;31.50;;;;;;;-2.64;82.56;100683.66;229343;1193;140238;-66
2021/12/12 23:01:28;;;;;;;73.20;31.10;;;;;;;-2.62;82.61;100696.54;228535;1194;141007;-66
2021/12/12 23:06:37;;;;;;;62.60;23.50;;;;;;;-2.62;82.63;100697.57;229856;1193;140062;-65
2021/12/12 23:11:40;;;;;;;80.70;31.40;;;;;;;-2.60;82.58;100698.27;230200;1193;142425;-66
2021/12/12 23:16:44;;;;;;;73.90;25.80;;;;;;;-2.55;82.15;100678.93;230070;1193;140340;-65
2021/12/12 23:22:14;;;;;;;78.50;28.40;;;;;;;-2.53;82.22;100674.01;229983;1193;141040;-66
2021/12/12 23:27:40;;;;;;;88.50;32.10;;;;;;;-2.51;82.28;100661.68;229468;1193;140678;-66